sensor_id;sensor_type;location;lat;lon;timestamp;temperature;humidity
56428;DHT22;42331;53.578;9.760;2022-12-07T00:00:13;3.20;99.90
56428;DHT22;42331;53.578;9.760;2022-12-07T00:02:44;3.10;99.90
56428;DHT22;42331;53.578;9.760;2022-12-07T00:05:15;3.10;99.90
56428;DHT22;42331;53.578;9.760;2022-12-07T00:07:46;3.10;99.90
56428;DHT22;42331;53.578;9.760;2022-12-07T00:10:16;3.10;99.90
56428;DHT22;42331;53.578;9.760;2022-12-07T00:12:47;3.10;99.90
56428;DHT22;42331;53.578;9.760;2022-12-07T00:15:18;3.10;99.90
56428;DHT22;42331;53.578;9.760;2022-12-07T00:17:48;3.10;99.90
56428;DHT22;42331;53.578;9.760;2022-12-07T00:20:19;3.20;99.90
56428;DHT22;42331;53.578;9.760;2022-12-07T00:22:50;3.20;99.90
56428;DHT22;42331;53.578;9.760;2022-12-07T00:25:21;3.10;99.90
56428;DHT22;42331;53.578;9.760;2022-12-07T00:27:53;3.20;99.90
56428;DHT22;42331;53.578;9.760;2022-12-07T00:30:26;3.20;99.90
56428;DHT22;42331;53.578;9.760;2022-12-07T00:32:56;3.20;99.90
56428;DHT22;42331;53.578;9.760;2022-12-07T00:35:27;3.20;99.90
56428;DHT22;42331;53.578;9.760;2022-12-07T00:37:58;3.30;99.90
56428;DHT22;42331;53.578;9.760;2022-12-07T00:40:28;3.30;99.90
56428;DHT22;42331;53.578;9.760;2022-12-07T00:42:59;3.30;99.90
56428;DHT22;42331;53.578;9.760;2022-12-07T00:45:30;3.40;99.90
56428;DHT22;42331;53.578;9.760;2022-12-07T00:48:01;3.40;99.90
56428;DHT22;42331;53.578;9.760;2022-12-07T00:50:31;3.40;99.90
56428;DHT22;42331;53.578;9.760;2022-12-07T00:53:02;3.40;99.90
56428;DHT22;42331;53.578;9.760;2022-12-07T00:55:34;3.40;99.90
56428;DHT22;42331;53.578;9.760;2022-12-07T00:58:05;3.40;99.90
56428;DHT22;42331;53.578;9.760;2022-12-07T01:00:38;3.40;99.90
56428;DHT22;42331;53.578;9.760;2022-12-07T01:03:11;3.40;99.90
56428;DHT22;42331;53.578;9.760;2022-12-07T01:05:50;3.40;99.90
56428;DHT22;42331;53.578;9.760;2022-12-07T01:08:22;3.40;99.90
56428;DHT22;42331;53.578;9.760;2022-12-07T01:10:57;3.40;99.90
56428;DHT22;42331;53.578;9.760;2022-12-07T01:13:28;3.30;99.90
56428;DHT22;42331;53.578;9.760;2022-12-07T01:16:02;3.40;99.90
56428;DHT22;42331;53.578;9.760;2022-12-07T01:18:35;3.30;99.90
56428;DHT22;42331;53.578;9.760;2022-12-07T01:21:14;3.30;99.90
56428;DHT22;42331;53.578;9.760;2022-12-07T01:23:45;3.30;99.90
56428;DHT22;42331;53.578;9.760;2022-12-07T01:26:20;3.30;99.90
56428;DHT22;42331;53.578;9.760;2022-12-07T01:28:51;3.30;99.90
56428;DHT22;42331;53.578;9.760;2022-12-07T01:31:26;3.30;99.90
56428;DHT22;42331;53.578;9.760;2022-12-07T01:33:58;3.30;99.90
56428;DHT22;42331;53.578;9.760;2022-12-07T01:36:32;3.30;99.90
56428;DHT22;42331;53.578;9.760;2022-12-07T01:39:06;3.30;99.90
56428;DHT22;42331;53.578;9.760;2022-12-07T01:41:40;3.20;99.90
56428;DHT22;42331;53.578;9.760;2022-12-07T01:44:15;3.20;99.90
56428;DHT22;42331;53.578;9.760;2022-12-07T01:46:56;3.30;99.90
56428;DHT22;42331;53.578;9.760;2022-12-07T01:49:44;3.20;99.90
56428;DHT22;42331;53.578;9.760;2022-12-07T01:52:30;3.20;99.90
56428;DHT22;42331;53.578;9.760;2022-12-07T01:55:05;3.20;99.90
56428;DHT22;42331;53.578;9.760;2022-12-07T01:57:43;3.20;99.90
56428;DHT22;42331;53.578;9.760;2022-12-07T02:00:17;3.10;99.90
56428;DHT22;42331;53.578;9.760;2022-12-07T02:03:07;3.10;99.90
56428;DHT22;42331;53.578;9.760;2022-12-07T02:05:40;3.10;99.90
56428;DHT22;42331;53.578;9.760;2022-12-07T02:08:12;3.10;99.90
56428;DHT22;42331;53.578;9.760;2022-12-07T02:10:43;3.00;99.90
56428;DHT22;42331;53.578;9.760;2022-12-07T02:13:26;3.00;99.90
56428;DHT22;42331;53.578;9.760;2022-12-07T02:24:33;3.00;99.90
56428;DHT22;42331;53.578;9.760;2022-12-07T02:27:09;3.10;99.90
56428;DHT22;42331;53.578;9.760;2022-12-07T02:29:54;3.10;99.90
56428;DHT22;42331;53.578;9.760;2022-12-07T02:41:03;2.90;99.90
56428;DHT22;42331;53.578;9.760;2022-12-07T02:43:39;2.90;99.90
56428;DHT22;42331;53.578;9.760;2022-12-07T02:46:18;2.80;99.90
56428;DHT22;42331;53.578;9.760;2022-12-07T02:48:51;2.80;99.90
56428;DHT22;42331;53.578;9.760;2022-12-07T02:51:23;2.80;99.90
56428;DHT22;42331;53.578;9.760;2022-12-07T02:53:54;2.80;99.90
56428;DHT22;42331;53.578;9.760;2022-12-07T02:56:48;2.80;99.90
56428;DHT22;42331;53.578;9.760;2022-12-07T02:59:36;2.80;99.90
56428;DHT22;42331;53.578;9.760;2022-12-07T03:05:59;2.70;99.90
56428;DHT22;42331;53.578;9.760;2022-12-07T03:11:08;2.70;99.90
56428;DHT22;42331;53.578;9.760;2022-12-07T03:13:59;2.60;99.90
56428;DHT22;42331;53.578;9.760;2022-12-07T03:16:40;2.70;99.90
56428;DHT22;42331;53.578;9.760;2022-12-07T03:19:17;2.70;99.90
56428;DHT22;42331;53.578;9.760;2022-12-07T03:22:02;2.70;99.90
56428;DHT22;42331;53.578;9.760;2022-12-07T03:24:39;2.60;99.90
56428;DHT22;42331;53.578;9.760;2022-12-07T03:29:59;2.60;99.90
56428;DHT22;42331;53.578;9.760;2022-12-07T03:32:33;2.60;99.90
56428;DHT22;42331;53.578;9.760;2022-12-07T03:37:47;2.60;99.90
56428;DHT22;42331;53.578;9.760;2022-12-07T03:42:59;2.50;99.90
56428;DHT22;42331;53.578;9.760;2022-12-07T03:53:57;2.40;99.90
56428;DHT22;42331;53.578;9.760;2022-12-07T03:56:29;2.40;99.90
56428;DHT22;42331;53.578;9.760;2022-12-07T03:59:00;2.40;99.90
56428;DHT22;42331;53.578;9.760;2022-12-07T04:01:31;2.40;99.90
56428;DHT22;42331;53.578;9.760;2022-12-07T04:04:02;2.40;99.90
56428;DHT22;42331;53.578;9.760;2022-12-07T04:06:33;2.40;99.90
56428;DHT22;42331;53.578;9.760;2022-12-07T04:09:03;2.40;99.90
56428;DHT22;42331;53.578;9.760;2022-12-07T04:11:34;2.40;99.90
56428;DHT22;42331;53.578;9.760;2022-12-07T04:14:05;2.30;99.90
56428;DHT22;42331;53.578;9.760;2022-12-07T04:16:53;2.30;99.90
56428;DHT22;42331;53.578;9.760;2022-12-07T04:19:29;2.30;99.90
56428;DHT22;42331;53.578;9.760;2022-12-07T04:22:02;2.30;99.90
56428;DHT22;42331;53.578;9.760;2022-12-07T04:24:33;2.20;99.90
56428;DHT22;42331;53.578;9.760;2022-12-07T04:27:04;2.20;99.90
56428;DHT22;42331;53.578;9.760;2022-12-07T04:29:35;2.30;99.90
56428;DHT22;42331;53.578;9.760;2022-12-07T04:32:06;2.30;99.90
56428;DHT22;42331;53.578;9.760;2022-12-07T04:34:36;2.20;99.90
56428;DHT22;42331;53.578;9.760;2022-12-07T04:37:07;2.20;99.90
56428;DHT22;42331;53.578;9.760;2022-12-07T04:39:38;2.20;99.90
56428;DHT22;42331;53.578;9.760;2022-12-07T04:42:08;2.20;99.90
56428;DHT22;42331;53.578;9.760;2022-12-07T04:44:39;2.10;99.90
56428;DHT22;42331;53.578;9.760;2022-12-07T04:47:10;2.00;99.90
56428;DHT22;42331;53.578;9.760;2022-12-07T04:49:41;2.00;99.90
56428;DHT22;42331;53.578;9.760;2022-12-07T04:52:12;2.00;99.90
56428;DHT22;42331;53.578;9.760;2022-12-07T04:54:42;1.90;99.90
56428;DHT22;42331;53.578;9.760;2022-12-07T04:57:13;1.90;99.90
56428;DHT22;42331;53.578;9.760;2022-12-07T04:59:44;1.90;99.90
56428;DHT22;42331;53.578;9.760;2022-12-07T05:02:17;1.90;99.90
56428;DHT22;42331;53.578;9.760;2022-12-07T05:04:48;1.80;99.90
56428;DHT22;42331;53.578;9.760;2022-12-07T05:07:18;1.80;99.90
56428;DHT22;42331;53.578;9.760;2022-12-07T05:09:49;1.80;99.90
56428;DHT22;42331;53.578;9.760;2022-12-07T05:12:20;1.60;99.90
56428;DHT22;42331;53.578;9.760;2022-12-07T05:14:51;1.60;99.90
56428;DHT22;42331;53.578;9.760;2022-12-07T05:17:21;1.60;99.90
56428;DHT22;42331;53.578;9.760;2022-12-07T05:19:52;1.60;99.90
56428;DHT22;42331;53.578;9.760;2022-12-07T05:22:23;1.60;99.90
56428;DHT22;42331;53.578;9.760;2022-12-07T05:24:55;1.50;99.90
56428;DHT22;42331;53.578;9.760;2022-12-07T05:27:26;1.50;99.90
56428;DHT22;42331;53.578;9.760;2022-12-07T05:29:57;1.50;99.90
56428;DHT22;42331;53.578;9.760;2022-12-07T05:32:27;1.60;99.90
56428;DHT22;42331;53.578;9.760;2022-12-07T05:34:58;1.60;99.90
56428;DHT22;42331;53.578;9.760;2022-12-07T05:37:29;1.60;99.90
56428;DHT22;42331;53.578;9.760;2022-12-07T05:40:00;1.70;99.90
56428;DHT22;42331;53.578;9.760;2022-12-07T05:42:30;1.60;99.90
56428;DHT22;42331;53.578;9.760;2022-12-07T05:45:01;1.70;99.90
56428;DHT22;42331;53.578;9.760;2022-12-07T05:47:32;1.70;99.90
56428;DHT22;42331;53.578;9.760;2022-12-07T05:50:04;1.70;99.90
56428;DHT22;42331;53.578;9.760;2022-12-07T05:52:35;1.80;99.90
56428;DHT22;42331;53.578;9.760;2022-12-07T05:55:06;1.80;99.90
56428;DHT22;42331;53.578;9.760;2022-12-07T05:57:37;1.80;99.90
56428;DHT22;42331;53.578;9.760;2022-12-07T06:00:08;1.80;99.90
56428;DHT22;42331;53.578;9.760;2022-12-07T06:02:39;1.80;99.90
56428;DHT22;42331;53.578;9.760;2022-12-07T06:05:10;1.80;99.90
56428;DHT22;42331;53.578;9.760;2022-12-07T06:07:40;1.90;99.90
56428;DHT22;42331;53.578;9.760;2022-12-07T06:10:11;1.80;99.90
56428;DHT22;42331;53.578;9.760;2022-12-07T06:12:42;1.80;99.90
56428;DHT22;42331;53.578;9.760;2022-12-07T06:15:13;1.70;99.90
56428;DHT22;42331;53.578;9.760;2022-12-07T06:17:44;1.70;99.90
56428;DHT22;42331;53.578;9.760;2022-12-07T06:20:15;1.60;99.90
56428;DHT22;42331;53.578;9.760;2022-12-07T06:22:45;1.60;99.90
56428;DHT22;42331;53.578;9.760;2022-12-07T06:25:16;1.60;99.90
56428;DHT22;42331;53.578;9.760;2022-12-07T06:27:47;1.50;99.90
56428;DHT22;42331;53.578;9.760;2022-12-07T06:30:17;1.60;99.90
56428;DHT22;42331;53.578;9.760;2022-12-07T06:32:48;1.60;99.90
56428;DHT22;42331;53.578;9.760;2022-12-07T06:35:19;1.60;99.90
56428;DHT22;42331;53.578;9.760;2022-12-07T06:37:50;1.70;99.90
56428;DHT22;42331;53.578;9.760;2022-12-07T06:40:20;1.80;99.90
56428;DHT22;42331;53.578;9.760;2022-12-07T06:42:51;1.80;99.90
56428;DHT22;42331;53.578;9.760;2022-12-07T06:45:22;1.90;99.90
56428;DHT22;42331;53.578;9.760;2022-12-07T06:47:52;1.90;99.90
56428;DHT22;42331;53.578;9.760;2022-12-07T06:50:23;2.00;99.90
56428;DHT22;42331;53.578;9.760;2022-12-07T06:52:54;2.10;99.90
56428;DHT22;42331;53.578;9.760;2022-12-07T06:55:24;2.10;99.90
56428;DHT22;42331;53.578;9.760;2022-12-07T06:57:55;2.10;99.90
56428;DHT22;42331;53.578;9.760;2022-12-07T07:00:26;2.10;99.90
56428;DHT22;42331;53.578;9.760;2022-12-07T07:02:56;2.10;99.90
56428;DHT22;42331;53.578;9.760;2022-12-07T07:05:27;2.10;99.90
56428;DHT22;42331;53.578;9.760;2022-12-07T07:07:58;2.20;99.90
56428;DHT22;42331;53.578;9.760;2022-12-07T07:10:29;2.20;99.90
56428;DHT22;42331;53.578;9.760;2022-12-07T07:12:59;2.20;99.90
56428;DHT22;42331;53.578;9.760;2022-12-07T07:15:31;2.30;99.90
56428;DHT22;42331;53.578;9.760;2022-12-07T07:18:01;2.30;99.90
56428;DHT22;42331;53.578;9.760;2022-12-07T07:20:34;2.30;99.90
56428;DHT22;42331;53.578;9.760;2022-12-07T07:23:04;2.30;99.90
56428;DHT22;42331;53.578;9.760;2022-12-07T07:25:35;2.30;99.90
56428;DHT22;42331;53.578;9.760;2022-12-07T07:28:06;2.30;99.90
56428;DHT22;42331;53.578;9.760;2022-12-07T07:30:37;2.30;99.90
56428;DHT22;42331;53.578;9.760;2022-12-07T07:33:09;2.30;99.90
56428;DHT22;42331;53.578;9.760;2022-12-07T07:35:40;2.30;99.90
56428;DHT22;42331;53.578;9.760;2022-12-07T07:38:10;2.30;99.90
56428;DHT22;42331;53.578;9.760;2022-12-07T07:40:41;2.30;99.90
56428;DHT22;42331;53.578;9.760;2022-12-07T07:43:12;2.30;99.90
56428;DHT22;42331;53.578;9.760;2022-12-07T07:45:42;2.30;99.90
56428;DHT22;42331;53.578;9.760;2022-12-07T07:48:14;2.20;99.90
56428;DHT22;42331;53.578;9.760;2022-12-07T07:50:45;2.30;99.90
56428;DHT22;42331;53.578;9.760;2022-12-07T07:53:15;2.30;99.90
56428;DHT22;42331;53.578;9.760;2022-12-07T07:55:53;2.20;99.90
56428;DHT22;42331;53.578;9.760;2022-12-07T07:58:24;2.20;99.90
56428;DHT22;42331;53.578;9.760;2022-12-07T08:00:55;2.30;99.90
56428;DHT22;42331;53.578;9.760;2022-12-07T08:03:26;2.30;99.90
56428;DHT22;42331;53.578;9.760;2022-12-07T08:05:57;2.30;99.90
56428;DHT22;42331;53.578;9.760;2022-12-07T08:08:27;2.40;99.90
56428;DHT22;42331;53.578;9.760;2022-12-07T08:10:58;2.40;99.90
56428;DHT22;42331;53.578;9.760;2022-12-07T08:13:31;2.50;99.90
56428;DHT22;42331;53.578;9.760;2022-12-07T08:16:07;2.50;99.90
56428;DHT22;42331;53.578;9.760;2022-12-07T08:18:40;2.50;99.90
56428;DHT22;42331;53.578;9.760;2022-12-07T08:21:13;2.60;99.90
56428;DHT22;42331;53.578;9.760;2022-12-07T08:23:44;2.60;99.90
56428;DHT22;42331;53.578;9.760;2022-12-07T08:26:16;2.60;99.90
56428;DHT22;42331;53.578;9.760;2022-12-07T08:28:47;2.60;99.90
56428;DHT22;42331;53.578;9.760;2022-12-07T08:31:18;2.70;99.90
56428;DHT22;42331;53.578;9.760;2022-12-07T08:33:49;2.70;99.90
56428;DHT22;42331;53.578;9.760;2022-12-07T08:36:20;2.80;99.90
56428;DHT22;42331;53.578;9.760;2022-12-07T08:38:52;2.80;99.90
56428;DHT22;42331;53.578;9.760;2022-12-07T08:41:22;2.80;99.90
56428;DHT22;42331;53.578;9.760;2022-12-07T08:43:53;2.90;99.90
56428;DHT22;42331;53.578;9.760;2022-12-07T08:46:47;2.90;99.90
56428;DHT22;42331;53.578;9.760;2022-12-07T08:49:24;2.90;99.90
56428;DHT22;42331;53.578;9.760;2022-12-07T08:51:56;3.00;99.90
56428;DHT22;42331;53.578;9.760;2022-12-07T08:54:28;3.00;99.90
56428;DHT22;42331;53.578;9.760;2022-12-07T08:56:59;3.10;99.90
56428;DHT22;42331;53.578;9.760;2022-12-07T08:59:30;3.20;99.90
56428;DHT22;42331;53.578;9.760;2022-12-07T09:02:01;3.20;99.90
56428;DHT22;42331;53.578;9.760;2022-12-07T09:04:33;3.20;99.90
56428;DHT22;42331;53.578;9.760;2022-12-07T09:07:03;3.30;99.90
56428;DHT22;42331;53.578;9.760;2022-12-07T09:09:34;3.30;99.90
56428;DHT22;42331;53.578;9.760;2022-12-07T09:12:05;3.30;99.90
56428;DHT22;42331;53.578;9.760;2022-12-07T09:14:36;3.30;99.90
56428;DHT22;42331;53.578;9.760;2022-12-07T09:17:08;3.40;99.90
56428;DHT22;42331;53.578;9.760;2022-12-07T09:19:39;3.40;99.90
56428;DHT22;42331;53.578;9.760;2022-12-07T09:22:10;3.40;99.90
56428;DHT22;42331;53.578;9.760;2022-12-07T09:24:41;3.40;99.90
56428;DHT22;42331;53.578;9.760;2022-12-07T09:27:12;3.40;99.90
56428;DHT22;42331;53.578;9.760;2022-12-07T09:29:42;3.50;99.90
56428;DHT22;42331;53.578;9.760;2022-12-07T09:32:13;3.40;99.90
56428;DHT22;42331;53.578;9.760;2022-12-07T09:34:44;3.40;99.90
56428;DHT22;42331;53.578;9.760;2022-12-07T09:37:15;3.40;99.90
56428;DHT22;42331;53.578;9.760;2022-12-07T09:39:45;3.40;99.90
56428;DHT22;42331;53.578;9.760;2022-12-07T09:44:59;3.50;99.90
56428;DHT22;42331;53.578;9.760;2022-12-07T09:47:32;3.50;99.90
56428;DHT22;42331;53.578;9.760;2022-12-07T09:50:07;3.50;99.90
56428;DHT22;42331;53.578;9.760;2022-12-07T09:52:44;3.60;99.90
56428;DHT22;42331;53.578;9.760;2022-12-07T09:55:21;3.60;99.90
56428;DHT22;42331;53.578;9.760;2022-12-07T09:57:54;3.60;99.90
56428;DHT22;42331;53.578;9.760;2022-12-07T10:00:25;3.60;99.90
56428;DHT22;42331;53.578;9.760;2022-12-07T10:03:01;3.60;99.90
56428;DHT22;42331;53.578;9.760;2022-12-07T10:05:36;3.60;99.90
56428;DHT22;42331;53.578;9.760;2022-12-07T10:08:10;3.60;99.90
56428;DHT22;42331;53.578;9.760;2022-12-07T10:10:42;3.60;99.90
56428;DHT22;42331;53.578;9.760;2022-12-07T10:13:14;3.50;99.90
56428;DHT22;42331;53.578;9.760;2022-12-07T10:15:55;3.50;99.90
56428;DHT22;42331;53.578;9.760;2022-12-07T10:18:37;3.50;99.90
56428;DHT22;42331;53.578;9.760;2022-12-07T10:26:52;3.60;99.90
56428;DHT22;42331;53.578;9.760;2022-12-07T10:29:53;3.60;99.90
56428;DHT22;42331;53.578;9.760;2022-12-07T10:32:33;3.70;99.90
56428;DHT22;42331;53.578;9.760;2022-12-07T10:35:29;3.70;99.90
56428;DHT22;42331;53.578;9.760;2022-12-07T10:38:00;3.70;99.90
56428;DHT22;42331;53.578;9.760;2022-12-07T10:40:36;3.80;99.90
56428;DHT22;42331;53.578;9.760;2022-12-07T10:48:59;3.80;99.90
56428;DHT22;42331;53.578;9.760;2022-12-07T10:51:55;3.80;99.90
56428;DHT22;42331;53.578;9.760;2022-12-07T11:11:14;4.00;99.90
56428;DHT22;42331;53.578;9.760;2022-12-07T11:14:01;4.10;99.90
56428;DHT22;42331;53.578;9.760;2022-12-07T11:21:58;4.00;99.90
56428;DHT22;42331;53.578;9.760;2022-12-07T11:27:20;4.00;99.90
56428;DHT22;42331;53.578;9.760;2022-12-07T11:35:49;4.00;99.90
56428;DHT22;42331;53.578;9.760;2022-12-07T11:38:31;4.00;99.90
56428;DHT22;42331;53.578;9.760;2022-12-07T11:41:06;4.00;99.90
56428;DHT22;42331;53.578;9.760;2022-12-07T11:44:07;4.00;99.90
56428;DHT22;42331;53.578;9.760;2022-12-07T11:50:08;4.10;99.90
56428;DHT22;42331;53.578;9.760;2022-12-07T12:06:44;4.20;99.90
56428;DHT22;42331;53.578;9.760;2022-12-07T12:09:18;4.20;99.90
56428;DHT22;42331;53.578;9.760;2022-12-07T12:17:50;4.10;99.90
56428;DHT22;42331;53.578;9.760;2022-12-07T12:20:29;4.20;99.90
56428;DHT22;42331;53.578;9.760;2022-12-07T12:25:46;4.20;99.90
56428;DHT22;42331;53.578;9.760;2022-12-07T12:28:40;4.20;99.90
56428;DHT22;42331;53.578;9.760;2022-12-07T12:33:54;4.40;99.90
56428;DHT22;42331;53.578;9.760;2022-12-07T12:47:04;4.60;99.90
56428;DHT22;42331;53.578;9.760;2022-12-07T12:49:38;4.50;99.90
56428;DHT22;42331;53.578;9.760;2022-12-07T12:55:12;4.60;99.90
56428;DHT22;42331;53.578;9.760;2022-12-07T12:57:43;4.60;99.90
56428;DHT22;42331;53.578;9.760;2022-12-07T13:02:53;4.40;99.90
56428;DHT22;42331;53.578;9.760;2022-12-07T13:05:31;4.40;99.90
56428;DHT22;42331;53.578;9.760;2022-12-07T13:08:18;4.40;99.90
56428;DHT22;42331;53.578;9.760;2022-12-07T13:10:50;4.50;99.90
56428;DHT22;42331;53.578;9.760;2022-12-07T13:18:37;4.30;99.90
56428;DHT22;42331;53.578;9.760;2022-12-07T13:28:51;4.30;99.90
56428;DHT22;42331;53.578;9.760;2022-12-07T13:37:25;4.30;99.90
56428;DHT22;42331;53.578;9.760;2022-12-07T13:40:11;4.20;99.90
56428;DHT22;42331;53.578;9.760;2022-12-07T13:42:46;4.20;99.90
56428;DHT22;42331;53.578;9.760;2022-12-07T13:45:28;4.20;99.90
56428;DHT22;42331;53.578;9.760;2022-12-07T13:51:00;4.20;99.90
56428;DHT22;42331;53.578;9.760;2022-12-07T13:53:31;4.10;99.90
56428;DHT22;42331;53.578;9.760;2022-12-07T13:56:02;4.10;99.90
56428;DHT22;42331;53.578;9.760;2022-12-07T13:58:33;4.10;99.90
56428;DHT22;42331;53.578;9.760;2022-12-07T14:01:05;4.10;99.90
56428;DHT22;42331;53.578;9.760;2022-12-07T14:03:36;4.10;99.90
56428;DHT22;42331;53.578;9.760;2022-12-07T14:06:27;4.10;99.90
56428;DHT22;42331;53.578;9.760;2022-12-07T14:09:14;4.10;99.90
56428;DHT22;42331;53.578;9.760;2022-12-07T14:11:48;4.10;99.90
56428;DHT22;42331;53.578;9.760;2022-12-07T14:14:29;4.10;99.90
56428;DHT22;42331;53.578;9.760;2022-12-07T14:19:43;4.00;99.90
56428;DHT22;42331;53.578;9.760;2022-12-07T14:22:54;3.90;99.90
56428;DHT22;42331;53.578;9.760;2022-12-07T14:25:26;3.90;99.90
56428;DHT22;42331;53.578;9.760;2022-12-07T14:27:59;3.80;99.90
56428;DHT22;42331;53.578;9.760;2022-12-07T14:30:32;3.80;99.90
56428;DHT22;42331;53.578;9.760;2022-12-07T14:33:08;3.70;99.90
56428;DHT22;42331;53.578;9.760;2022-12-07T14:35:38;3.60;99.90
56428;DHT22;42331;53.578;9.760;2022-12-07T14:38:10;3.50;99.90
56428;DHT22;42331;53.578;9.760;2022-12-07T14:40:41;3.40;99.90
56428;DHT22;42331;53.578;9.760;2022-12-07T14:43:15;3.30;99.90
56428;DHT22;42331;53.578;9.760;2022-12-07T14:45:46;3.30;99.90
56428;DHT22;42331;53.578;9.760;2022-12-07T14:48:17;3.20;99.90
56428;DHT22;42331;53.578;9.760;2022-12-07T14:50:51;3.10;99.90
56428;DHT22;42331;53.578;9.760;2022-12-07T14:53:29;3.00;99.90
56428;DHT22;42331;53.578;9.760;2022-12-07T14:56:01;2.90;99.90
56428;DHT22;42331;53.578;9.760;2022-12-07T14:58:32;2.80;99.90
56428;DHT22;42331;53.578;9.760;2022-12-07T15:01:03;2.70;99.90
56428;DHT22;42331;53.578;9.760;2022-12-07T15:03:34;2.60;99.90
56428;DHT22;42331;53.578;9.760;2022-12-07T15:06:06;2.60;99.90
56428;DHT22;42331;53.578;9.760;2022-12-07T15:08:37;2.50;99.90
56428;DHT22;42331;53.578;9.760;2022-12-07T15:11:13;2.50;99.90
56428;DHT22;42331;53.578;9.760;2022-12-07T15:13:44;2.40;99.90
56428;DHT22;42331;53.578;9.760;2022-12-07T15:16:33;2.30;99.90
56428;DHT22;42331;53.578;9.760;2022-12-07T15:19:04;2.30;99.90
56428;DHT22;42331;53.578;9.760;2022-12-07T16:09:48;2.30;99.90
56428;DHT22;42331;53.578;9.760;2022-12-07T16:12:20;1.60;99.90
56428;DHT22;42331;53.578;9.760;2022-12-07T16:14:50;1.50;99.90
56428;DHT22;42331;53.578;9.760;2022-12-07T16:17:21;1.60;99.90
56428;DHT22;42331;53.578;9.760;2022-12-07T16:19:52;1.50;99.90
56428;DHT22;42331;53.578;9.760;2022-12-07T16:22:23;1.50;99.90
56428;DHT22;42331;53.578;9.760;2022-12-07T16:24:54;1.50;99.90
56428;DHT22;42331;53.578;9.760;2022-12-07T16:27:25;1.50;99.90
56428;DHT22;42331;53.578;9.760;2022-12-07T16:29:56;1.50;99.90
56428;DHT22;42331;53.578;9.760;2022-12-07T16:32:26;1.40;99.90
56428;DHT22;42331;53.578;9.760;2022-12-07T16:34:57;1.40;99.90
56428;DHT22;42331;53.578;9.760;2022-12-07T16:37:28;1.40;99.90
56428;DHT22;42331;53.578;9.760;2022-12-07T16:39:59;1.40;99.90
56428;DHT22;42331;53.578;9.760;2022-12-07T16:42:33;1.40;99.90
56428;DHT22;42331;53.578;9.760;2022-12-07T16:45:04;1.40;99.90
56428;DHT22;42331;53.578;9.760;2022-12-07T16:47:37;1.40;99.90
56428;DHT22;42331;53.578;9.760;2022-12-07T16:50:08;1.40;99.90
56428;DHT22;42331;53.578;9.760;2022-12-07T16:52:39;1.30;99.90
56428;DHT22;42331;53.578;9.760;2022-12-07T16:55:10;1.30;99.90
56428;DHT22;42331;53.578;9.760;2022-12-07T16:57:41;1.30;99.90
56428;DHT22;42331;53.578;9.760;2022-12-07T17:00:12;1.30;99.90
56428;DHT22;42331;53.578;9.760;2022-12-07T17:02:43;1.30;99.90
56428;DHT22;42331;53.578;9.760;2022-12-07T17:05:13;1.30;99.90
56428;DHT22;42331;53.578;9.760;2022-12-07T17:07:44;1.30;99.90
56428;DHT22;42331;53.578;9.760;2022-12-07T17:10:15;1.30;99.90
56428;DHT22;42331;53.578;9.760;2022-12-07T17:12:45;1.30;99.90
56428;DHT22;42331;53.578;9.760;2022-12-07T17:15:17;1.30;99.90
56428;DHT22;42331;53.578;9.760;2022-12-07T17:17:56;1.30;99.90
56428;DHT22;42331;53.578;9.760;2022-12-07T17:20:27;1.20;99.90
56428;DHT22;42331;53.578;9.760;2022-12-07T17:22:58;1.20;99.90
56428;DHT22;42331;53.578;9.760;2022-12-07T17:25:28;1.10;99.90
56428;DHT22;42331;53.578;9.760;2022-12-07T17:27:59;1.10;99.90
56428;DHT22;42331;53.578;9.760;2022-12-07T17:30:30;1.10;99.90
56428;DHT22;42331;53.578;9.760;2022-12-07T17:33:01;1.10;99.90
56428;DHT22;42331;53.578;9.760;2022-12-07T17:35:32;1.00;99.90
56428;DHT22;42331;53.578;9.760;2022-12-07T17:38:02;1.00;99.90
56428;DHT22;42331;53.578;9.760;2022-12-07T17:40:33;1.00;99.90
56428;DHT22;42331;53.578;9.760;2022-12-07T17:43:04;1.00;99.90
56428;DHT22;42331;53.578;9.760;2022-12-07T17:45:36;1.00;99.90
56428;DHT22;42331;53.578;9.760;2022-12-07T17:48:07;0.90;99.90
56428;DHT22;42331;53.578;9.760;2022-12-07T17:50:38;0.90;99.90
56428;DHT22;42331;53.578;9.760;2022-12-07T17:53:28;0.80;99.90
56428;DHT22;42331;53.578;9.760;2022-12-07T17:55:59;0.80;99.90
56428;DHT22;42331;53.578;9.760;2022-12-07T17:58:29;0.80;99.90
56428;DHT22;42331;53.578;9.760;2022-12-07T18:01:00;0.80;99.90
56428;DHT22;42331;53.578;9.760;2022-12-07T18:03:31;0.80;99.90
56428;DHT22;42331;53.578;9.760;2022-12-07T18:06:02;0.70;99.90
56428;DHT22;42331;53.578;9.760;2022-12-07T18:08:36;0.60;99.90
56428;DHT22;42331;53.578;9.760;2022-12-07T18:11:08;0.60;99.90
56428;DHT22;42331;53.578;9.760;2022-12-07T18:13:39;0.50;99.90
56428;DHT22;42331;53.578;9.760;2022-12-07T18:16:18;0.50;99.90
56428;DHT22;42331;53.578;9.760;2022-12-07T18:18:50;0.50;99.90
56428;DHT22;42331;53.578;9.760;2022-12-07T18:21:26;0.50;99.90
56428;DHT22;42331;53.578;9.760;2022-12-07T18:23:59;0.50;99.90
56428;DHT22;42331;53.578;9.760;2022-12-07T18:26:32;0.50;99.90
56428;DHT22;42331;53.578;9.760;2022-12-07T18:29:06;0.40;99.90
56428;DHT22;42331;53.578;9.760;2022-12-07T18:31:37;0.40;99.90
56428;DHT22;42331;53.578;9.760;2022-12-07T18:34:11;0.40;99.90
56428;DHT22;42331;53.578;9.760;2022-12-07T18:36:45;0.40;99.90
56428;DHT22;42331;53.578;9.760;2022-12-07T18:39:17;0.50;99.90
56428;DHT22;42331;53.578;9.760;2022-12-07T18:41:48;0.50;99.90
56428;DHT22;42331;53.578;9.760;2022-12-07T18:44:19;0.40;99.90
56428;DHT22;42331;53.578;9.760;2022-12-07T18:46:50;0.40;99.90
56428;DHT22;42331;53.578;9.760;2022-12-07T18:49:21;0.40;99.90
56428;DHT22;42331;53.578;9.760;2022-12-07T18:51:52;0.30;99.90
56428;DHT22;42331;53.578;9.760;2022-12-07T18:54:22;0.40;99.90
56428;DHT22;42331;53.578;9.760;2022-12-07T18:56:53;0.40;99.90
56428;DHT22;42331;53.578;9.760;2022-12-07T18:59:25;0.40;99.90
56428;DHT22;42331;53.578;9.760;2022-12-07T19:02:14;0.40;99.90
56428;DHT22;42331;53.578;9.760;2022-12-07T19:04:47;0.40;99.90
56428;DHT22;42331;53.578;9.760;2022-12-07T19:07:18;0.40;99.90
56428;DHT22;42331;53.578;9.760;2022-12-07T19:09:48;0.40;99.90
56428;DHT22;42331;53.578;9.760;2022-12-07T19:12:19;0.40;99.90
56428;DHT22;42331;53.578;9.760;2022-12-07T19:14:50;0.30;99.90
56428;DHT22;42331;53.578;9.760;2022-12-07T19:17:21;0.30;99.90
56428;DHT22;42331;53.578;9.760;2022-12-07T19:19:51;0.40;99.90
56428;DHT22;42331;53.578;9.760;2022-12-07T19:22:23;0.30;99.90
56428;DHT22;42331;53.578;9.760;2022-12-07T19:24:54;0.30;99.90
56428;DHT22;42331;53.578;9.760;2022-12-07T19:27:25;0.30;99.90
56428;DHT22;42331;53.578;9.760;2022-12-07T19:29:57;0.30;99.90
56428;DHT22;42331;53.578;9.760;2022-12-07T19:32:28;0.30;99.90
56428;DHT22;42331;53.578;9.760;2022-12-07T19:34:59;0.20;99.90
56428;DHT22;42331;53.578;9.760;2022-12-07T19:37:30;0.20;99.90
56428;DHT22;42331;53.578;9.760;2022-12-07T19:40:01;0.30;99.90
56428;DHT22;42331;53.578;9.760;2022-12-07T19:42:31;0.40;99.90
56428;DHT22;42331;53.578;9.760;2022-12-07T19:45:05;0.30;99.90